createdAt,value
2018-06-05T00:00:21.519Z,31.50
2018-06-05T00:02:50.437Z,31.97
2018-06-05T00:05:19.334Z,31.83
2018-06-05T00:07:48.302Z,31.97
2018-06-05T00:10:17.195Z,31.53
2018-06-05T00:12:46.081Z,33.27
2018-06-05T00:15:14.978Z,32.43
2018-06-05T00:17:43.882Z,32.93
2018-06-05T00:20:12.756Z,34.27
2018-06-05T00:22:41.652Z,34.63
2018-06-05T00:25:10.523Z,34.53
2018-06-05T00:27:39.426Z,34.10
2018-06-05T00:30:08.306Z,33.07
2018-06-05T00:32:37.194Z,34.33
2018-06-05T00:35:06.096Z,32.00
2018-06-05T00:37:34.984Z,31.83
2018-06-05T00:40:03.886Z,32.33
2018-06-05T00:42:32.558Z,29.50
2018-06-05T00:45:01.302Z,27.93
2018-06-05T00:47:30.202Z,27.73
2018-06-05T00:49:59.071Z,27.50
2018-06-05T00:52:28.062Z,27.57
2018-06-05T00:54:56.948Z,28.53
2018-06-05T00:57:25.870Z,26.03
2018-06-05T00:59:54.751Z,26.97
2018-06-05T01:02:23.626Z,26.77
2018-06-05T01:04:52.566Z,29.17
2018-06-05T01:07:21.462Z,32.73
2018-06-05T01:09:50.404Z,29.43
2018-06-05T01:12:19.345Z,29.17
2018-06-05T01:14:48.230Z,27.97
2018-06-05T01:17:17.118Z,28.37
2018-06-05T01:19:46.018Z,28.37
2018-06-05T01:22:14.914Z,28.07
2018-06-05T01:24:43.823Z,29.17
2018-06-05T01:27:12.711Z,27.73
2018-06-05T01:29:41.613Z,29.27
2018-06-05T01:32:10.494Z,30.40
2018-06-05T01:34:39.390Z,30.57
2018-06-05T01:37:08.288Z,28.70
2018-06-05T01:39:37.177Z,27.87
2018-06-05T01:42:06.067Z,28.10
2018-06-05T01:44:34.975Z,26.87
2018-06-05T01:47:03.866Z,26.00
2018-06-05T01:49:38.199Z,26.47
2018-06-05T01:52:07.089Z,24.80
2018-06-05T01:54:36.081Z,24.17
2018-06-05T01:57:05.007Z,25.00
2018-06-05T01:59:33.918Z,23.97
2018-06-05T02:02:02.814Z,24.23
2018-06-05T02:04:31.726Z,23.30
2018-06-05T02:07:01.274Z,21.90
2018-06-05T02:09:30.174Z,25.73
2018-06-05T02:11:59.065Z,22.70
2018-06-05T02:14:27.966Z,23.23
2018-06-05T02:16:56.868Z,22.67
2018-06-05T02:19:25.783Z,23.07
2018-06-05T02:21:54.698Z,23.40
2018-06-05T02:24:23.585Z,21.53
2018-06-05T02:26:52.491Z,24.93
2018-06-05T02:29:21.386Z,21.20
2018-06-05T02:31:50.285Z,22.30
2018-06-05T02:34:19.248Z,21.73
2018-06-05T02:36:48.102Z,22.43
2018-06-05T02:39:17.010Z,25.23
2018-06-05T02:41:45.690Z,23.10
2018-06-05T02:44:14.453Z,22.77
2018-06-05T02:46:43.361Z,22.10
2018-06-05T02:49:12.274Z,23.00
2018-06-05T02:51:41.177Z,22.33
2018-06-05T02:54:10.070Z,25.07
2018-06-05T02:56:38.986Z,24.83
2018-06-05T02:59:07.882Z,24.87
2018-06-05T03:01:36.790Z,28.00
2018-06-05T03:04:05.884Z,25.77
2018-06-05T03:06:34.806Z,27.50
2018-06-05T03:09:04.346Z,25.30
2018-06-05T03:11:33.251Z,26.40
2018-06-05T03:14:02.129Z,26.13
2018-06-05T03:16:31.032Z,26.43
2018-06-05T03:18:59.914Z,26.00
2018-06-05T03:21:28.810Z,25.47
2018-06-05T03:23:57.710Z,24.70
2018-06-05T03:26:26.620Z,25.87
2018-06-05T03:28:55.499Z,26.60
2018-06-05T03:31:24.419Z,26.13
2018-06-05T03:33:53.637Z,27.63
2018-06-05T03:36:22.523Z,22.80
2018-06-05T03:38:51.401Z,23.10
2018-06-05T03:41:20.328Z,24.13
2018-06-05T03:43:49.220Z,26.23
2018-06-05T03:46:18.111Z,23.80
2018-06-05T03:48:47.010Z,24.07
2018-06-05T03:51:15.915Z,24.70
2018-06-05T03:53:44.805Z,24.70
2018-06-05T03:56:13.719Z,24.77
2018-06-05T03:58:42.639Z,24.67
2018-06-05T04:01:11.519Z,24.40
2018-06-05T04:03:40.661Z,23.23
2018-06-05T04:06:09.562Z,24.27
2018-06-05T04:08:38.466Z,23.53
2018-06-05T04:11:07.370Z,26.07
2018-06-05T04:13:36.292Z,26.87
2018-06-05T04:16:05.179Z,26.63
2018-06-05T04:18:34.090Z,29.70
2018-06-05T04:21:02.981Z,24.70
2018-06-05T04:23:31.866Z,30.10
2018-06-05T04:26:00.755Z,25.83
2018-06-05T04:28:29.699Z,29.10
2018-06-05T04:30:58.587Z,27.37
2018-06-05T04:33:27.626Z,24.53
2018-06-05T04:35:56.527Z,25.47
2018-06-05T04:38:25.429Z,23.97
2018-06-05T04:40:54.935Z,25.47
2018-06-05T04:43:23.859Z,27.17
2018-06-05T04:45:52.783Z,24.73
2018-06-05T04:48:21.731Z,26.17
2018-06-05T04:50:50.618Z,24.93
2018-06-05T04:53:19.523Z,25.87
2018-06-05T04:55:48.420Z,26.53
2018-06-05T04:58:17.320Z,25.00
2018-06-05T05:00:46.198Z,25.47
2018-06-05T05:03:24.689Z,25.77
2018-06-05T05:05:57.182Z,25.50
2018-06-05T05:08:26.081Z,24.57
2018-06-05T05:10:54.971Z,25.03
2018-06-05T05:13:23.887Z,25.73
2018-06-05T05:15:52.791Z,24.90
2018-06-05T05:18:21.694Z,24.27
2018-06-05T05:20:50.587Z,25.73
2018-06-05T05:23:19.546Z,25.07
2018-06-05T05:25:48.382Z,24.73
2018-06-05T05:28:17.311Z,24.57
2018-06-05T05:30:46.223Z,25.53
2018-06-05T05:33:15.518Z,27.30
2018-06-05T05:35:44.407Z,25.00
2018-06-05T05:38:13.315Z,25.30
2018-06-05T05:40:42.202Z,25.87
2018-06-05T05:43:11.381Z,24.80
2018-06-05T05:45:40.267Z,25.77
2018-06-05T05:48:09.185Z,24.77
2018-06-05T05:50:38.071Z,25.63
2018-06-05T05:53:06.975Z,24.67
2018-06-05T05:55:35.866Z,26.17
2018-06-05T05:58:04.794Z,25.63
2018-06-05T06:00:33.692Z,25.17
2018-06-05T06:03:02.585Z,25.30
2018-06-05T06:05:31.487Z,23.63
2018-06-05T06:08:00.421Z,24.17
2018-06-05T06:10:29.330Z,22.93
2018-06-05T06:12:58.206Z,23.53
2018-06-05T06:15:27.098Z,23.90
2018-06-05T06:17:55.995Z,22.83
2018-06-05T06:20:24.889Z,21.87
2018-06-05T06:22:53.775Z,25.57
2018-06-05T06:25:22.670Z,22.73
2018-06-05T06:27:51.569Z,23.67
2018-06-05T06:30:20.473Z,21.60
2018-06-05T06:32:49.371Z,23.20
2018-06-05T06:35:18.282Z,23.17
2018-06-05T06:37:47.178Z,22.37
2018-06-05T06:40:16.091Z,27.17
2018-06-05T06:42:44.984Z,24.07
2018-06-05T06:45:13.954Z,26.77
2018-06-05T06:47:42.834Z,24.97
2018-06-05T06:50:11.739Z,24.90
2018-06-05T06:52:40.627Z,29.00
2018-06-05T06:55:09.525Z,21.63
2018-06-05T06:57:38.414Z,24.50
2018-06-05T07:00:07.302Z,22.60
2018-06-05T07:02:36.191Z,21.70
2018-06-05T07:05:05.339Z,25.07
2018-06-05T07:07:34.226Z,21.60
2018-06-05T07:10:03.135Z,22.23
2018-06-05T07:12:32.027Z,22.00
2018-06-05T07:15:00.946Z,22.33
2018-06-05T07:17:29.834Z,21.70
2018-06-05T07:19:58.722Z,22.47
2018-06-05T07:22:27.682Z,22.40
2018-06-05T07:24:56.578Z,22.73
2018-06-05T07:27:25.474Z,21.17
2018-06-05T07:29:54.373Z,21.50
2018-06-05T07:32:23.317Z,22.40
2018-06-05T07:34:52.218Z,23.03
2018-06-05T07:37:21.115Z,21.43
2018-06-05T07:39:50.017Z,22.47
2018-06-05T07:42:18.914Z,24.37
2018-06-05T07:44:47.816Z,22.90
2018-06-05T07:47:16.698Z,24.20
2018-06-05T07:49:45.602Z,24.77
2018-06-05T07:52:14.489Z,23.80
2018-06-05T07:54:43.390Z,23.17
2018-06-05T07:57:12.275Z,24.13
2018-06-05T07:59:41.184Z,25.13
2018-06-05T08:02:10.064Z,24.20
2018-06-05T08:04:38.960Z,25.83
2018-06-05T08:07:07.872Z,26.13
2018-06-05T08:09:36.745Z,26.10
2018-06-05T08:12:05.629Z,26.60
2018-06-05T08:14:34.524Z,25.00
2018-06-05T08:17:03.806Z,24.93
2018-06-05T08:19:32.720Z,25.77
2018-06-05T08:22:01.664Z,23.63
2018-06-05T08:24:30.636Z,22.87
2018-06-05T08:26:59.466Z,24.80
2018-06-05T08:29:28.375Z,25.40
2018-06-05T08:31:57.271Z,24.40
2018-06-05T08:34:26.564Z,24.00
2018-06-05T08:36:55.468Z,21.60
2018-06-05T08:39:24.363Z,22.93
2018-06-05T08:41:53.294Z,23.67
2018-06-05T08:44:22.174Z,24.27
2018-06-05T08:46:51.082Z,25.73
2018-06-05T08:49:20.301Z,22.47
2018-06-05T08:51:49.204Z,25.23
2018-06-05T08:54:18.164Z,22.90
2018-06-05T08:56:46.999Z,20.73
2018-06-05T08:59:15.886Z,19.70
2018-06-05T09:01:44.790Z,18.17
2018-06-05T09:04:13.678Z,17.30
2018-06-05T09:06:42.586Z,16.53
2018-06-05T09:09:11.566Z,16.47
2018-06-05T09:11:40.459Z,16.43
2018-06-05T09:14:09.343Z,16.10
2018-06-05T09:16:38.842Z,16.20
2018-06-05T09:19:07.998Z,16.10
2018-06-05T09:21:36.926Z,15.83
2018-06-05T09:24:06.283Z,17.57
2018-06-05T09:26:35.150Z,16.80
2018-06-05T09:29:04.045Z,16.63
2018-06-05T09:31:33.174Z,16.40
2018-06-05T09:34:02.076Z,16.53
2018-06-05T09:36:30.979Z,16.10
2018-06-05T09:38:59.874Z,16.97
2018-06-05T09:41:28.777Z,16.57
2018-06-05T09:43:57.658Z,16.40
2018-06-05T09:46:26.572Z,15.03
2018-06-05T09:48:55.458Z,15.47
2018-06-05T09:51:24.376Z,14.87
2018-06-05T09:53:53.261Z,15.73
2018-06-05T09:56:22.259Z,15.37
2018-06-05T09:58:51.143Z,15.33
2018-06-05T10:01:20.078Z,15.23
2018-06-05T10:03:49.012Z,15.90
2018-06-05T10:06:17.854Z,16.37
2018-06-05T10:08:46.766Z,16.93
2018-06-05T10:11:15.843Z,17.57
2018-06-05T10:13:44.749Z,17.80
2018-06-05T10:16:13.638Z,16.80
2018-06-05T10:18:42.526Z,17.53
2018-06-05T10:21:11.415Z,18.20
2018-06-05T10:23:40.299Z,17.87
2018-06-05T10:26:09.183Z,18.20
2018-06-05T10:28:38.079Z,17.37
2018-06-05T10:31:06.955Z,17.57
2018-06-05T10:33:35.868Z,17.87
2018-06-05T10:36:04.751Z,17.63
2018-06-05T10:38:33.655Z,18.80
2018-06-05T10:41:02.535Z,18.20
2018-06-05T10:43:31.440Z,17.80
2018-06-05T10:46:00.328Z,17.13
2018-06-05T10:48:29.235Z,18.17
2018-06-05T10:50:58.133Z,17.73
2018-06-05T10:53:27.035Z,18.03
2018-06-05T10:55:55.930Z,17.47
2018-06-05T10:58:24.822Z,17.00
2018-06-05T11:00:53.714Z,17.73
2018-06-05T11:03:22.621Z,17.40
2018-06-05T11:05:51.524Z,18.37
2018-06-05T11:08:20.418Z,17.50
2018-06-05T11:10:49.310Z,17.93
2018-06-05T11:13:18.201Z,16.97
2018-06-05T11:15:47.082Z,17.60
2018-06-05T11:18:16.234Z,18.10
2018-06-05T11:20:45.135Z,19.07
2018-06-05T11:23:14.055Z,16.80
2018-06-05T11:25:42.947Z,16.10
2018-06-05T11:28:11.915Z,16.43
2018-06-05T11:30:40.826Z,16.63
2018-06-05T11:33:09.746Z,17.40
2018-06-05T11:35:38.646Z,17.57
2018-06-05T11:38:07.551Z,16.43
2018-06-05T11:40:36.433Z,17.07
2018-06-05T11:43:05.338Z,16.87
2018-06-05T11:45:34.227Z,16.97
2018-06-05T11:48:03.126Z,17.50
2018-06-05T11:50:32.006Z,16.97
2018-06-05T11:53:00.905Z,17.23
2018-06-05T11:55:29.789Z,17.90
2018-06-05T11:57:58.702Z,18.70
2018-06-05T12:00:27.586Z,17.17
2018-06-05T12:02:56.487Z,18.17
2018-06-05T12:05:25.391Z,16.70
2018-06-05T12:07:54.285Z,17.93
2018-06-05T12:10:23.193Z,16.87
2018-06-05T12:12:52.097Z,16.87
2018-06-05T12:15:21.033Z,16.30
2018-06-05T12:17:49.915Z,16.10
2018-06-05T12:20:18.807Z,15.47
2018-06-05T12:22:47.718Z,15.80
2018-06-05T12:25:16.623Z,16.97
2018-06-05T12:27:45.812Z,18.90
2018-06-05T12:30:14.719Z,16.63
2018-06-05T12:32:43.623Z,16.87
2018-06-05T12:35:12.534Z,16.10
2018-06-05T12:37:41.428Z,17.30
2018-06-05T12:40:10.334Z,15.80
2018-06-05T12:42:39.236Z,16.40
2018-06-05T12:45:08.159Z,17.13
2018-06-05T12:47:37.053Z,16.37
2018-06-05T12:50:05.963Z,14.70
2018-06-05T12:52:34.950Z,15.67
2018-06-05T12:55:03.849Z,15.50
2018-06-05T12:57:32.750Z,16.03
2018-06-05T13:00:01.831Z,16.00
2018-06-05T13:02:30.745Z,15.27
2018-06-05T13:04:59.670Z,14.67
2018-06-05T13:07:28.666Z,15.80
2018-06-05T13:09:57.988Z,15.70
2018-06-05T13:12:27.108Z,15.37
2018-06-05T13:14:55.998Z,16.23
2018-06-05T13:17:25.001Z,14.90
2018-06-05T13:19:53.852Z,14.03
2018-06-05T13:22:22.752Z,15.93
2018-06-05T13:24:51.638Z,15.33
2018-06-05T13:27:20.539Z,16.10
2018-06-05T13:29:49.447Z,15.37
2018-06-05T13:32:18.336Z,16.43
2018-06-05T13:34:47.232Z,16.17
2018-06-05T13:37:16.124Z,15.70
2018-06-05T13:39:45.025Z,16.80
2018-06-05T13:42:13.904Z,16.57
2018-06-05T13:44:42.814Z,16.93
2018-06-05T13:47:11.699Z,15.10
2018-06-05T13:49:40.850Z,16.07
2018-06-05T13:52:09.741Z,16.95
2018-06-05T13:54:38.635Z,16.27
2018-06-05T13:57:07.527Z,15.73
2018-06-05T13:59:36.419Z,16.55
2018-06-05T14:02:05.387Z,16.23
2018-06-05T14:04:34.294Z,15.98
2018-06-05T14:07:03.198Z,16.53
2018-06-05T14:09:32.081Z,16.30
2018-06-05T14:12:00.971Z,15.28
2018-06-05T14:14:29.862Z,18.65
2018-06-05T14:16:58.778Z,16.00
2018-06-05T14:19:27.676Z,16.30
2018-06-05T14:21:56.580Z,15.28
2018-06-05T14:24:25.467Z,16.25
2018-06-05T14:26:54.384Z,16.77
2018-06-05T14:29:23.261Z,17.20
2018-06-05T14:31:52.178Z,16.65
2018-06-05T14:34:21.084Z,17.05
2018-06-05T14:36:50.100Z,17.15
2018-06-05T14:39:19.006Z,18.80
2018-06-05T14:41:47.971Z,17.32
2018-06-05T14:44:16.867Z,16.42
2018-06-05T14:46:45.765Z,17.10
2018-06-05T14:49:14.650Z,16.95
2018-06-05T14:51:43.566Z,15.58
2018-06-05T14:54:12.450Z,18.50
2018-06-05T14:56:41.446Z,16.82
2018-06-05T14:59:11.191Z,16.35
2018-06-05T15:01:40.578Z,17.35
2018-06-05T15:04:09.508Z,16.73
2018-06-05T15:06:38.444Z,19.67
2018-06-05T15:09:07.375Z,18.30
2018-06-05T15:11:36.279Z,17.02
2018-06-05T15:14:05.174Z,18.02
2018-06-05T15:16:34.083Z,17.10
2018-06-05T15:19:02.969Z,16.12
2018-06-05T15:21:31.872Z,16.02
2018-06-05T15:24:00.861Z,17.80
2018-06-05T15:26:29.873Z,18.90
2018-06-05T15:28:59.211Z,15.13
2018-06-05T15:31:28.100Z,17.05
2018-06-05T15:33:57.021Z,16.65
2018-06-05T15:36:25.902Z,21.80
2018-06-05T15:38:54.799Z,17.12
2018-06-05T15:41:23.710Z,15.78
2018-06-05T15:43:52.831Z,16.80
2018-06-05T15:46:22.582Z,16.65
2018-06-05T15:48:52.526Z,17.37
2018-06-05T15:51:21.787Z,22.37
2018-06-05T15:53:50.693Z,19.15
2018-06-05T15:56:19.587Z,16.45
2018-06-05T15:58:48.516Z,19.73
2018-06-05T16:01:17.525Z,18.98
2018-06-05T16:03:46.501Z,16.42
2018-06-05T16:06:15.390Z,15.50
2018-06-05T16:08:44.317Z,15.50
2018-06-05T16:11:13.246Z,17.32
2018-06-05T16:13:42.188Z,15.70
2018-06-05T16:16:11.115Z,17.87
2018-06-05T16:18:39.999Z,20.57
2018-06-05T16:21:08.895Z,15.43
2018-06-05T16:23:37.791Z,14.55
2018-06-05T16:26:06.691Z,14.58
2018-06-05T16:28:35.653Z,15.70
2018-06-05T16:31:04.562Z,14.15
2018-06-05T16:33:33.473Z,15.20
2018-06-05T16:36:02.374Z,19.35
2018-06-05T16:38:31.257Z,16.90
2018-06-05T16:41:00.153Z,17.50
2018-06-05T16:43:29.040Z,14.00
2018-06-05T16:45:57.951Z,15.35
2018-06-05T16:48:26.850Z,14.63
2018-06-05T16:50:55.758Z,17.07
2018-06-05T16:53:24.816Z,17.07
2018-06-05T16:55:53.815Z,15.23
2018-06-05T16:58:23.647Z,15.15
2018-06-05T17:00:52.647Z,13.58
2018-06-05T17:03:21.722Z,15.72
2018-06-05T17:05:51.078Z,17.10
2018-06-05T17:08:20.743Z,14.60
2018-06-05T17:10:50.568Z,17.65
2018-06-05T17:13:20.373Z,15.85
2018-06-05T17:15:51.527Z,14.40
2018-06-05T17:18:20.710Z,13.55
2018-06-05T17:20:49.910Z,13.80
2018-06-05T17:23:19.717Z,16.05
2018-06-05T17:25:49.006Z,14.55
2018-06-05T17:28:18.080Z,15.95
2018-06-05T17:30:47.271Z,16.55
2018-06-05T17:33:16.432Z,15.85
2018-06-05T17:35:46.445Z,16.15
2018-06-05T17:38:15.796Z,13.15
2018-06-05T17:40:45.246Z,14.58
2018-06-05T17:43:14.383Z,18.37
2018-06-05T17:45:44.001Z,15.72
2018-06-05T17:48:14.476Z,14.73
2018-06-05T17:50:45.170Z,19.90
2018-06-05T17:53:15.680Z,23.62
2018-06-05T17:55:46.609Z,17.90
2018-06-05T17:58:16.856Z,14.13
2018-06-05T18:00:47.348Z,15.18
2018-06-05T18:03:18.302Z,14.83
2018-06-05T18:05:48.692Z,18.12
2018-06-05T18:08:19.051Z,16.62
2018-06-05T18:10:49.386Z,14.58
2018-06-05T18:13:19.063Z,14.13
2018-06-05T18:15:48.119Z,15.60
2018-06-05T18:18:17.270Z,12.03
2018-06-05T18:20:49.977Z,14.18
2018-06-05T18:23:20.084Z,13.97
2018-06-05T18:25:49.819Z,15.20
2018-06-05T18:28:20.219Z,16.17
2018-06-05T18:30:50.762Z,14.97
2018-06-05T18:33:20.024Z,14.43
2018-06-05T18:35:48.971Z,15.00
2018-06-05T18:38:17.971Z,14.50
2018-06-05T18:40:46.860Z,15.53
2018-06-05T18:43:15.782Z,17.23
2018-06-05T18:45:44.706Z,17.50
2018-06-05T18:48:13.619Z,16.67
2018-06-05T18:50:42.506Z,15.17
2018-06-05T18:53:11.418Z,18.07
2018-06-05T18:55:40.314Z,15.73
2018-06-05T18:58:09.354Z,15.60
2018-06-05T19:00:38.316Z,17.07
2018-06-05T19:03:07.167Z,18.43
2018-06-05T19:05:36.078Z,21.93
2018-06-05T19:08:05.070Z,18.13
2018-06-05T19:10:33.984Z,16.83
2018-06-05T19:13:02.930Z,22.07
2018-06-05T19:15:31.825Z,18.70
2018-06-05T19:18:00.734Z,17.37
2018-06-05T19:20:29.625Z,19.57
2018-06-05T19:22:58.568Z,17.13
2018-06-05T19:25:27.450Z,20.00
2018-06-05T19:27:56.342Z,22.70
2018-06-05T19:30:25.397Z,19.47
2018-06-05T19:32:54.301Z,21.80
2018-06-05T19:35:23.194Z,20.10
2018-06-05T19:37:52.105Z,20.37
2018-06-05T19:40:21.000Z,18.50
2018-06-05T19:42:50.093Z,20.67
2018-06-05T19:45:18.982Z,18.13
2018-06-05T19:47:47.927Z,18.40
2018-06-05T19:50:16.818Z,18.97
2018-06-05T19:52:45.747Z,20.13
2018-06-05T19:55:14.674Z,19.53
2018-06-05T19:57:43.983Z,21.97
2018-06-05T20:00:13.299Z,19.37
2018-06-05T20:02:42.188Z,20.83
2018-06-05T20:05:11.107Z,20.73
2018-06-05T20:07:40.005Z,22.87
2018-06-05T20:10:08.919Z,21.07
2018-06-05T20:12:37.848Z,21.10
2018-06-05T20:15:07.182Z,20.37
2018-06-05T20:17:36.066Z,19.10
2018-06-05T20:20:05.061Z,20.30
2018-06-05T20:22:34.111Z,19.03
2018-06-05T20:25:03.194Z,21.13
2018-06-05T20:27:32.259Z,22.10
2018-06-05T20:30:01.353Z,21.90
2018-06-05T20:32:32.233Z,22.30
2018-06-05T20:35:02.107Z,22.17
2018-06-05T20:37:31.007Z,22.63
2018-06-05T20:39:59.920Z,20.87
2018-06-05T20:42:29.193Z,22.40
2018-06-05T20:44:58.065Z,23.47
2018-06-05T20:47:27.386Z,23.47
2018-06-05T20:49:57.306Z,24.77
2018-06-05T20:52:26.191Z,28.33
2018-06-05T20:54:55.087Z,22.53
2018-06-05T20:57:23.980Z,22.87
2018-06-05T20:59:52.891Z,23.93
2018-06-05T21:02:21.790Z,23.73
2018-06-05T21:04:50.687Z,22.40
2018-06-05T21:07:19.597Z,25.63
2018-06-05T21:09:48.503Z,22.33
2018-06-05T21:12:17.398Z,22.70
2018-06-05T21:14:46.294Z,22.40
2018-06-05T21:17:15.187Z,22.20
2018-06-05T21:19:44.088Z,22.40
2018-06-05T21:22:12.986Z,21.57
2018-06-05T21:24:41.896Z,20.63
2018-06-05T21:27:10.779Z,19.83
2018-06-05T21:29:39.682Z,19.27
2018-06-05T21:32:08.571Z,19.17
2018-06-05T21:34:37.875Z,25.40
2018-06-05T21:37:06.823Z,22.27
2018-06-05T21:39:35.659Z,19.60
2018-06-05T21:42:04.534Z,19.70
2018-06-05T21:44:33.443Z,22.73
2018-06-05T21:47:02.330Z,23.63
2018-06-05T21:49:31.244Z,23.20
2018-06-05T21:52:00.132Z,22.97
2018-06-05T21:54:29.033Z,21.67
2018-06-05T21:56:57.918Z,18.93
2018-06-05T21:59:26.830Z,21.40
2018-06-05T22:01:55.754Z,17.70
2018-06-05T22:04:24.675Z,24.33
2018-06-05T22:06:53.611Z,17.63
2018-06-05T22:09:22.589Z,19.77
2018-06-05T22:11:51.466Z,21.77
2018-06-05T22:14:20.382Z,15.70
2018-06-05T22:16:49.274Z,18.70
2018-06-05T22:19:18.447Z,20.10
2018-06-05T22:21:47.344Z,18.80
2018-06-05T22:24:16.246Z,22.67
2018-06-05T22:26:45.149Z,15.70
2018-06-05T22:29:14.081Z,21.03
2018-06-05T22:31:42.972Z,17.17
2018-06-05T22:34:11.866Z,20.80
2018-06-05T22:36:40.771Z,22.20
2018-06-05T22:39:10.056Z,15.10
2018-06-05T22:41:38.962Z,17.80
2018-06-05T22:44:07.849Z,17.47
2018-06-05T22:46:36.761Z,19.90
2018-06-05T22:49:05.654Z,22.57
2018-06-05T22:51:34.566Z,21.23
2018-06-05T22:54:03.462Z,20.50
2018-06-05T22:56:32.372Z,21.93
2018-06-05T22:59:02.103Z,20.60
2018-06-05T23:01:31.018Z,21.77
2018-06-05T23:03:59.914Z,20.93
2018-06-05T23:06:28.830Z,19.93
2018-06-05T23:08:57.948Z,18.33
2018-06-05T23:11:27.174Z,19.53
2018-06-05T23:13:56.060Z,21.43
2018-06-05T23:16:24.956Z,25.30
2018-06-05T23:18:53.861Z,22.47
2018-06-05T23:21:22.758Z,22.07
2018-06-05T23:23:51.647Z,26.33
2018-06-05T23:26:20.549Z,19.97
2018-06-05T23:28:49.674Z,18.27
2018-06-05T23:31:18.879Z,18.73
2018-06-05T23:33:47.762Z,22.37
2018-06-05T23:36:16.678Z,20.70
2018-06-05T23:38:45.577Z,21.60
2018-06-05T23:41:14.499Z,20.73
2018-06-05T23:43:43.478Z,22.07
2018-06-05T23:46:12.383Z,21.37
2018-06-05T23:48:41.270Z,16.27
2018-06-05T23:51:10.501Z,18.40
2018-06-05T23:53:39.162Z,23.20
2018-06-05T23:56:07.935Z,20.00
2018-06-05T23:58:36.829Z,17.10
